Terminal Aerodrome Forecast
Issued by NWS Mt. Holly, NJ

Home | Current Version | Previous Version | Text Only | Print | Product List | Glossary On
Versions: 1 2 3 4 5 6 7 8 9 10 11 12 13 14 15 16
000
FTUS41 KPHI 011730
TAFTTN
TAF
KTTN 011730Z 0118/0218 27010G18KT P6SM FEW050 SCT080
     FM012300 30004KT P6SM SKC
     FM020600 VRB02KT P6SM SKC
     FM021400 32005KT P6SM SKC=

USA.gov is the U.S. government's official web portal to all federal, state and local government web resources and services.